createdAt,value
2022-08-10T00:01:03.354Z,23.05
2022-08-10T00:03:30.572Z,23.01
2022-08-10T00:05:57.960Z,22.98
2022-08-10T00:08:25.344Z,22.95
2022-08-10T00:10:51.654Z,22.92
2022-08-10T00:13:18.033Z,22.90
2022-08-10T00:15:53.358Z,22.89
2022-08-10T00:18:35.125Z,22.87
2022-08-10T00:21:02.678Z,22.86
2022-08-10T00:23:28.978Z,22.82
2022-08-10T00:25:55.982Z,22.79
2022-08-10T00:28:23.633Z,22.75
2022-08-10T00:30:51.166Z,22.72
2022-08-10T00:33:17.492Z,22.68
2022-08-10T00:35:44.254Z,22.65
2022-08-10T00:38:12.941Z,22.62
2022-08-10T00:40:39.343Z,22.58
2022-08-10T00:43:05.823Z,22.55
2022-08-10T00:45:33.599Z,22.52
2022-08-10T00:48:00.195Z,22.47
2022-08-10T00:50:27.035Z,22.42
2022-08-10T00:52:54.624Z,22.37
2022-08-10T00:55:22.154Z,22.32
2022-08-10T00:57:55.035Z,22.28
2022-08-10T01:00:21.995Z,22.22
2022-08-10T01:02:49.087Z,22.17
2022-08-10T01:05:15.456Z,22.13
2022-08-10T01:07:41.793Z,22.10
2022-08-10T01:10:08.141Z,22.06
2022-08-10T01:12:40.567Z,22.03
2022-08-10T01:15:08.048Z,22.01
2022-08-10T01:17:50.814Z,21.97
2022-08-10T01:20:27.287Z,21.94
2022-08-10T01:22:57.534Z,21.89
2022-08-10T01:25:25.917Z,21.87
2022-08-10T01:27:53.107Z,21.84
2022-08-10T01:30:19.449Z,21.80
2022-08-10T01:32:45.959Z,21.79
2022-08-10T01:35:12.294Z,21.78
2022-08-10T01:37:38.625Z,21.76
2022-08-10T01:40:04.931Z,21.73
2022-08-10T01:42:31.237Z,21.72
2022-08-10T01:44:57.623Z,21.68
2022-08-10T01:47:23.951Z,21.66
2022-08-10T01:49:50.343Z,21.63
2022-08-10T01:52:18.167Z,21.60
2022-08-10T01:54:44.697Z,21.53
2022-08-10T01:57:11.047Z,21.47
2022-08-10T02:00:02.286Z,21.41
2022-08-10T02:02:37.908Z,21.40
2022-08-10T02:05:04.597Z,21.36
2022-08-10T02:07:31.281Z,21.34
2022-08-10T02:09:57.539Z,21.29
2022-08-10T02:12:24.111Z,21.27
2022-08-10T02:14:50.385Z,21.22
2022-08-10T02:17:59.838Z,21.19
2022-08-10T02:20:02.995Z,21.15
2022-08-10T02:22:37.564Z,21.13
2022-08-10T02:25:41.847Z,21.11
2022-08-10T02:27:59.755Z,21.08
2022-08-10T02:30:28.015Z,21.04
2022-08-10T02:32:54.653Z,21.01
2022-08-10T02:35:22.502Z,20.96
2022-08-10T02:37:50.452Z,20.92
2022-08-10T02:42:18.402Z,20.90
2022-08-10T02:45:19.996Z,20.86
2022-08-10T02:45:50.380Z,20.82
2022-08-10T02:48:18.221Z,20.79
2022-08-10T02:50:44.524Z,20.78
2022-08-10T02:53:56.718Z,20.74
2022-08-10T02:55:57.153Z,20.71
2022-08-10T02:58:23.557Z,20.69
2022-08-10T03:00:50.287Z,20.67
2022-08-10T03:03:16.676Z,20.65
2022-08-10T03:05:46.063Z,20.63
2022-08-10T03:08:12.367Z,20.61
2022-08-10T03:10:39.822Z,20.59
2022-08-10T03:13:06.226Z,20.56
2022-08-10T03:15:33.712Z,20.51
2022-08-10T03:18:00.880Z,20.47
2022-08-10T03:20:37.155Z,20.46
2022-08-10T03:23:05.935Z,20.42
2022-08-10T03:25:32.340Z,20.37
2022-08-10T03:27:59.944Z,20.36
2022-08-10T03:30:32.842Z,20.33
2022-08-10T03:33:00.134Z,20.29
2022-08-10T03:35:26.530Z,20.27
2022-08-10T03:37:59.026Z,20.24
2022-08-10T03:40:44.805Z,20.23
2022-08-10T03:43:12.680Z,20.19
2022-08-10T03:45:55.936Z,20.13
2022-08-10T03:48:47.040Z,20.08
2022-08-10T03:51:13.379Z,20.04
2022-08-10T03:54:03.206Z,20.04
2022-08-10T03:56:32.352Z,20.04
2022-08-10T03:59:00.061Z,20.04
2022-08-10T04:02:45.594Z,20.03
2022-08-10T04:04:17.848Z,20.02
2022-08-10T04:06:51.317Z,20.02
2022-08-10T04:09:22.599Z,19.99
2022-08-10T04:11:51.127Z,19.97
2022-08-10T04:14:38.266Z,19.95
2022-08-10T04:17:12.014Z,19.82
2022-08-10T04:19:45.608Z,19.94
2022-08-10T04:22:22.247Z,19.94
2022-08-10T04:24:50.201Z,19.92
2022-08-10T04:27:17.399Z,19.90
2022-08-10T04:29:44.072Z,19.90
2022-08-10T04:32:10.364Z,19.94
2022-08-10T04:34:36.679Z,19.86
2022-08-10T04:37:08.160Z,20.01
2022-08-10T04:39:35.484Z,20.09
2022-08-10T04:42:02.165Z,20.17
2022-08-10T04:44:28.649Z,20.24
2022-08-10T04:46:58.445Z,20.21
2022-08-10T04:49:54.272Z,20.33
2022-08-10T04:52:12.295Z,20.41
2022-08-10T04:54:38.786Z,20.46
2022-08-10T04:57:05.597Z,20.49
2022-08-10T04:59:31.965Z,20.55
2022-08-10T05:02:28.408Z,20.61
2022-08-10T05:04:47.956Z,20.67
2022-08-10T05:07:16.514Z,20.76
2022-08-10T05:10:03.081Z,20.84
2022-08-10T05:12:31.377Z,20.95
2022-08-10T05:14:57.926Z,21.06
2022-08-10T05:17:24.318Z,21.17
2022-08-10T05:20:03.409Z,21.31
2022-08-10T05:22:31.817Z,21.45
2022-08-10T05:24:58.304Z,21.58
2022-08-10T05:27:24.760Z,21.72
2022-08-10T05:30:02.187Z,21.86
2022-08-10T05:32:29.946Z,22.01
2022-08-10T05:34:56.311Z,22.03
2022-08-10T05:38:10.639Z,22.06
2022-08-10T05:40:10.288Z,22.12
2022-08-10T05:42:36.771Z,22.20
2022-08-10T05:45:03.253Z,22.35
2022-08-10T05:48:54.751Z,22.54
2022-08-10T05:50:16.086Z,22.69
2022-08-10T05:52:42.397Z,22.97
2022-08-10T05:55:10.195Z,23.29
2022-08-10T05:57:37.342Z,23.58
2022-08-10T06:00:33.501Z,23.81
2022-08-10T06:02:51.329Z,24.04
2022-08-10T06:05:18.523Z,24.23
2022-08-10T06:07:44.833Z,24.41
2022-08-10T06:10:11.542Z,24.60
2022-08-10T06:12:54.424Z,24.71
2022-08-10T06:15:51.549Z,24.89
2022-08-10T06:18:09.341Z,25.06
2022-08-10T06:20:36.341Z,25.19
2022-08-10T06:23:02.895Z,25.32
2022-08-10T06:26:11.376Z,25.50
2022-08-10T06:28:16.470Z,25.68
2022-08-10T06:30:43.118Z,25.86
2022-08-10T06:33:10.225Z,26.00
2022-08-10T06:35:37.562Z,26.18
2022-08-10T06:38:04.017Z,26.36
2022-08-10T06:40:31.577Z,26.52
2022-08-10T06:42:58.715Z,26.65
2022-08-10T06:45:25.097Z,26.79
2022-08-10T06:47:51.594Z,26.94
2022-08-10T06:50:35.044Z,27.08
2022-08-10T06:53:05.037Z,27.26
2022-08-10T06:55:49.618Z,27.39
2022-08-10T06:58:16.627Z,27.55
2022-08-10T07:00:43.252Z,27.70
2022-08-10T07:03:09.575Z,27.87
2022-08-10T07:05:35.898Z,28.02
2022-08-10T07:08:03.517Z,28.16
2022-08-10T07:10:41.231Z,28.29
2022-08-10T07:13:12.581Z,28.43
2022-08-10T07:15:59.727Z,28.56
2022-08-10T07:18:26.168Z,28.67
2022-08-10T07:20:53.816Z,28.73
2022-08-10T07:23:57.394Z,28.86
2022-08-10T07:26:06.466Z,29.03
2022-08-10T07:28:33.194Z,29.14
2022-08-10T07:30:59.705Z,29.24
2022-08-10T07:33:26.158Z,29.32
2022-08-10T07:35:52.470Z,29.43
2022-08-10T07:38:19.307Z,29.54
2022-08-10T07:40:45.692Z,29.69
2022-08-10T07:43:12.381Z,29.84
2022-08-10T07:45:38.748Z,30.00
2022-08-10T07:48:07.807Z,30.17
2022-08-10T07:50:36.203Z,30.37
2022-08-10T07:53:03.385Z,30.58
2022-08-10T07:56:05.687Z,30.79
2022-08-10T07:58:18.470Z,30.94
2022-08-10T08:00:44.893Z,31.17
2022-08-10T08:03:11.771Z,31.37
2022-08-10T08:05:58.791Z,31.56
2022-08-10T08:08:24.442Z,31.81
2022-08-10T08:10:50.755Z,31.98
2022-08-10T08:13:17.072Z,32.14
2022-08-10T08:16:20.343Z,32.25
2022-08-10T08:18:29.913Z,32.52
2022-08-10T08:20:56.468Z,32.75
2022-08-10T08:24:04.512Z,32.91
2022-08-10T08:26:15.485Z,32.95
2022-08-10T08:28:42.782Z,32.78
2022-08-10T08:31:09.484Z,32.90
2022-08-10T08:33:42.621Z,33.43
2022-08-10T08:36:09.231Z,33.77
2022-08-10T08:38:35.596Z,33.98
2022-08-10T08:41:02.091Z,34.11
2022-08-10T08:43:31.517Z,34.11
2022-08-10T08:46:01.150Z,34.10
2022-08-10T08:48:28.353Z,34.21
2022-08-10T08:50:57.542Z,34.23
2022-08-10T08:53:24.258Z,34.25
2022-08-10T08:56:10.622Z,34.19
2022-08-10T08:58:37.895Z,34.13
2022-08-10T09:01:04.811Z,34.03
2022-08-10T09:03:32.667Z,33.80
2022-08-10T09:06:00.621Z,33.27
2022-08-10T09:08:27.204Z,32.25
2022-08-10T09:10:53.927Z,31.75
2022-08-10T09:13:20.333Z,31.47
2022-08-10T09:15:46.644Z,31.32
2022-08-10T09:18:13.294Z,31.22
2022-08-10T09:20:41.791Z,31.16
2022-08-10T09:23:08.996Z,31.11
2022-08-10T09:25:35.562Z,31.06
2022-08-10T09:28:01.853Z,31.03
2022-08-10T09:30:31.131Z,31.02
2022-08-10T09:36:13.292Z,30.98
2022-08-10T09:36:26.577Z,30.96
2022-08-10T09:38:33.303Z,30.93
2022-08-10T09:41:04.175Z,30.92
2022-08-10T09:43:34.496Z,30.89
2022-08-10T09:46:01.765Z,30.87
2022-08-10T09:48:28.182Z,30.85
2022-08-10T09:53:41.296Z,30.82
2022-08-10T09:56:17.027Z,30.71
2022-08-10T09:58:46.801Z,30.78
2022-08-10T10:01:57.743Z,30.75
2022-08-10T10:03:59.960Z,30.73
2022-08-10T10:06:26.266Z,30.72
2022-08-10T10:08:53.729Z,30.70
2022-08-10T10:11:25.066Z,30.66
2022-08-10T10:14:02.823Z,30.65
2022-08-10T10:16:32.322Z,30.61
2022-08-10T10:18:59.139Z,30.59
2022-08-10T10:21:55.139Z,30.57
2022-08-10T10:24:21.064Z,30.56
2022-08-10T10:26:48.783Z,30.53
2022-08-10T10:29:55.584Z,30.51
2022-08-10T10:32:01.540Z,30.48
2022-08-10T10:34:27.890Z,30.46
2022-08-10T10:36:54.186Z,30.45
2022-08-10T10:39:24.089Z,30.43
2022-08-10T10:42:03.356Z,30.42
2022-08-10T10:44:31.239Z,30.41
2022-08-10T10:46:57.574Z,30.39
2022-08-10T10:49:24.078Z,30.37
2022-08-10T10:51:50.407Z,30.35
2022-08-10T10:54:16.788Z,30.31
2022-08-10T10:56:43.167Z,30.31
2022-08-10T10:59:35.490Z,30.32
2022-08-10T11:01:56.212Z,30.31
2022-08-10T11:04:22.854Z,30.28
2022-08-10T11:06:49.309Z,30.27
2022-08-10T11:10:03.888Z,30.26
2022-08-10T11:12:03.102Z,30.26
2022-08-10T11:14:31.423Z,30.25
2022-08-10T11:17:00.163Z,30.23
2022-08-10T11:19:26.767Z,30.22
2022-08-10T11:22:16.290Z,30.18
2022-08-10T11:24:49.650Z,30.19
2022-08-10T11:27:17.435Z,30.19
2022-08-10T11:29:49.868Z,30.18
2022-08-10T11:32:20.738Z,30.17
2022-08-10T11:35:11.308Z,30.16
2022-08-10T11:38:29.736Z,30.17
2022-08-10T11:40:21.386Z,30.15
2022-08-10T11:42:47.812Z,30.15
2022-08-10T11:45:14.096Z,30.16
2022-08-10T11:47:40.513Z,30.16
2022-08-10T11:50:06.866Z,30.16
2022-08-10T11:52:33.820Z,30.18
2022-08-10T11:55:00.545Z,30.17
2022-08-10T11:57:52.914Z,30.16
2022-08-10T12:00:16.199Z,30.16
2022-08-10T12:02:43.322Z,30.17
2022-08-10T12:05:09.959Z,30.18
2022-08-10T12:10:07.418Z,30.16
2022-08-10T12:10:23.001Z,30.12
2022-08-10T12:12:49.334Z,30.13
2022-08-10T12:15:15.657Z,30.14
2022-08-10T12:17:42.151Z,30.16
2022-08-10T12:20:08.896Z,30.15
2022-08-10T12:22:35.541Z,30.16
2022-08-10T12:25:02.634Z,30.17
2022-08-10T12:27:29.403Z,30.14
2022-08-10T12:29:55.798Z,30.11
2022-08-10T12:32:25.604Z,30.11
2022-08-10T12:34:52.291Z,30.10
2022-08-10T12:37:19.666Z,30.10
2022-08-10T12:39:46.139Z,30.06
2022-08-10T12:42:12.723Z,30.09
2022-08-10T12:44:59.109Z,30.09
2022-08-10T12:47:25.600Z,30.07
2022-08-10T12:50:13.721Z,30.08
2022-08-10T12:52:38.718Z,30.09
2022-08-10T12:55:05.537Z,30.10
2022-08-10T12:57:31.896Z,30.08
2022-08-10T12:59:58.767Z,30.08
2022-08-10T13:02:25.235Z,30.06
2022-08-10T13:04:51.644Z,30.04
2022-08-10T13:08:26.079Z,30.01
2022-08-10T13:10:07.663Z,30.00
2022-08-10T13:12:40.123Z,30.00
2022-08-10T13:15:45.661Z,30.00
2022-08-10T13:17:53.405Z,29.99
2022-08-10T13:20:20.306Z,29.98
2022-08-10T13:22:46.895Z,29.97
2022-08-10T13:25:13.612Z,29.96
2022-08-10T13:28:00.017Z,29.95
2022-08-10T13:30:38.017Z,29.94
2022-08-10T13:33:04.779Z,29.93
2022-08-10T13:35:32.012Z,29.92
2022-08-10T13:37:58.276Z,29.91
2022-08-10T13:40:24.595Z,29.91
2022-08-10T13:42:51.132Z,29.90
2022-08-10T13:45:17.426Z,29.88
2022-08-10T13:47:48.599Z,29.88
2022-08-10T13:50:16.313Z,29.87
2022-08-10T13:52:45.611Z,29.86
2022-08-10T13:55:11.997Z,29.85
2022-08-10T13:57:38.404Z,29.83
2022-08-10T14:00:34.472Z,29.83
2022-08-10T14:03:00.533Z,29.83
2022-08-10T14:05:27.292Z,29.81
2022-08-10T14:08:00.510Z,29.80
2022-08-10T14:11:09.752Z,29.79
2022-08-10T14:13:14.787Z,29.79
2022-08-10T14:15:41.143Z,29.78
2022-08-10T14:18:07.540Z,29.78
2022-08-10T14:20:38.083Z,29.77
2022-08-10T14:23:17.857Z,29.77
2022-08-10T14:25:52.516Z,29.76
2022-08-10T14:28:25.337Z,29.73
2022-08-10T14:30:53.345Z,29.71
2022-08-10T14:33:20.535Z,29.70
2022-08-10T14:36:21.253Z,29.70
2022-08-10T14:38:35.086Z,29.71
2022-08-10T14:41:01.950Z,29.69
2022-08-10T14:43:30.406Z,29.67
2022-08-10T14:45:56.939Z,29.66
2022-08-10T14:48:32.053Z,29.63
2022-08-10T14:51:03.469Z,29.60
2022-08-10T14:53:30.287Z,29.56
2022-08-10T14:56:01.999Z,29.53
2022-08-10T14:58:28.720Z,29.51
2022-08-10T15:00:56.648Z,29.48
2022-08-10T15:04:01.263Z,29.47
2022-08-10T15:06:17.112Z,29.45
2022-08-10T15:08:47.181Z,29.42
2022-08-10T15:12:11.908Z,29.41
2022-08-10T15:14:38.782Z,29.37
2022-08-10T15:16:46.423Z,29.35
2022-08-10T15:20:01.005Z,29.33
2022-08-10T15:22:13.279Z,29.28
2022-08-10T15:24:48.988Z,29.28
2022-08-10T15:27:15.448Z,29.27
2022-08-10T15:29:57.212Z,29.27
2022-08-10T15:32:24.618Z,29.26
2022-08-10T15:34:52.833Z,29.27
2022-08-10T15:37:47.032Z,29.25
2022-08-10T15:40:24.211Z,29.23
2022-08-10T15:42:53.669Z,29.21
2022-08-10T15:45:19.920Z,29.19
2022-08-10T15:47:46.860Z,29.16
2022-08-10T15:50:13.344Z,29.14
2022-08-10T15:53:00.523Z,29.12
2022-08-10T15:55:43.375Z,29.10
2022-08-10T15:58:11.646Z,29.08
2022-08-10T16:00:38.316Z,29.06
2022-08-10T16:03:04.668Z,29.05
2022-08-10T16:06:00.948Z,29.05
2022-08-10T16:08:17.473Z,29.04
2022-08-10T16:10:53.682Z,29.03
2022-08-10T16:13:59.639Z,29.02
2022-08-10T16:16:06.657Z,29.00
2022-08-10T16:18:33.198Z,28.97
2022-08-10T16:21:03.109Z,28.94
2022-08-10T16:26:53.936Z,28.92
2022-08-10T16:29:22.788Z,28.91
2022-08-10T16:31:52.475Z,28.89
2022-08-10T16:34:19.011Z,28.87
2022-08-10T16:36:46.174Z,28.86
2022-08-10T16:39:15.565Z,28.85
2022-08-10T16:42:02.680Z,28.85
2022-08-10T16:44:35.418Z,28.84
2022-08-10T16:47:02.959Z,28.85
2022-08-10T16:49:30.257Z,28.84
2022-08-10T16:51:56.989Z,28.83
2022-08-10T16:54:27.629Z,28.82
2022-08-10T16:56:55.001Z,28.80
2022-08-10T16:59:24.953Z,28.80
2022-08-10T17:01:54.127Z,28.80
2022-08-10T17:04:21.785Z,28.78
2022-08-10T17:06:51.384Z,28.77
2022-08-10T17:09:22.956Z,28.77
2022-08-10T17:11:50.184Z,28.75
2022-08-10T17:14:16.724Z,28.74
2022-08-10T17:16:43.734Z,28.73
2022-08-10T17:19:13.295Z,28.72
2022-08-10T17:21:51.766Z,28.71
2022-08-10T17:24:20.067Z,28.70
2022-08-10T17:26:46.513Z,28.68
2022-08-10T17:29:53.394Z,28.67
2022-08-10T17:32:01.601Z,28.65
2022-08-10T17:34:28.812Z,28.64
2022-08-10T17:36:55.631Z,28.63
2022-08-10T17:39:22.791Z,28.61
2022-08-10T17:41:51.155Z,28.59
2022-08-10T17:44:17.851Z,28.57
2022-08-10T17:46:45.090Z,28.56
2022-08-10T17:49:12.429Z,28.54
2022-08-10T17:51:44.837Z,28.54
2022-08-10T17:54:11.809Z,28.51
2022-08-10T17:56:38.823Z,28.49
2022-08-10T17:59:11.918Z,28.47
2022-08-10T18:01:58.806Z,28.45
2022-08-10T18:04:28.797Z,28.43
2022-08-10T18:06:55.721Z,28.41
2022-08-10T18:09:24.420Z,28.39
2022-08-10T18:11:50.826Z,28.38
2022-08-10T18:14:17.334Z,28.36
2022-08-10T18:16:44.051Z,28.35
2022-08-10T18:19:10.853Z,28.32
2022-08-10T18:21:37.281Z,28.30
2022-08-10T18:24:05.044Z,28.29
2022-08-10T18:26:31.427Z,28.28
2022-08-10T18:28:57.709Z,28.27
2022-08-10T18:31:24.594Z,28.24
2022-08-10T18:33:51.043Z,28.22
2022-08-10T18:36:17.829Z,28.19
2022-08-10T18:38:44.526Z,28.18
2022-08-10T18:41:11.368Z,28.16
2022-08-10T18:44:10.734Z,28.15
2022-08-10T18:46:25.258Z,28.12
2022-08-10T18:48:52.338Z,28.10
2022-08-10T18:51:19.756Z,27.99
2022-08-10T18:53:47.041Z,28.06
2022-08-10T18:56:13.458Z,28.04
2022-08-10T18:58:40.132Z,28.00
2022-08-10T19:01:06.938Z,27.98
2022-08-10T19:03:33.688Z,27.96
2022-08-10T19:06:00.089Z,27.92
2022-08-10T19:08:30.266Z,27.91
2022-08-10T19:10:57.589Z,27.89
2022-08-10T19:13:24.020Z,27.86
2022-08-10T19:15:50.678Z,27.84
2022-08-10T19:18:17.638Z,27.80
2022-08-10T19:20:44.092Z,27.78
2022-08-10T19:23:10.935Z,27.75
2022-08-10T19:26:39.394Z,27.73
2022-08-10T19:28:23.732Z,27.70
2022-08-10T19:30:50.042Z,27.68
2022-08-10T19:33:16.515Z,27.65
2022-08-10T19:36:03.384Z,27.62
2022-08-10T19:38:33.144Z,27.59
2022-08-10T19:41:00.034Z,27.56
2022-08-10T19:44:01.461Z,27.53
2022-08-10T19:46:28.297Z,27.50
2022-08-10T19:48:55.800Z,27.49
2022-08-10T19:51:23.082Z,27.46
2022-08-10T19:53:49.644Z,27.42
2022-08-10T19:56:33.045Z,27.40
2022-08-10T19:59:00.812Z,27.38
2022-08-10T20:01:55.753Z,27.35
2022-08-10T20:04:13.700Z,27.32
2022-08-10T20:06:40.037Z,27.28
2022-08-10T20:09:06.467Z,27.22
2022-08-10T20:11:44.461Z,27.18
2022-08-10T20:14:21.916Z,27.13
2022-08-10T20:16:48.739Z,27.08
2022-08-10T20:19:15.312Z,27.03
2022-08-10T20:21:41.784Z,26.98
2022-08-10T20:24:08.225Z,26.93
2022-08-10T20:26:34.887Z,26.88
2022-08-10T20:29:01.692Z,26.83
2022-08-10T20:31:28.500Z,26.78
2022-08-10T20:33:58.777Z,26.74
2022-08-10T20:36:27.469Z,26.70
2022-08-10T20:38:54.030Z,26.64
2022-08-10T20:41:20.333Z,26.60
2022-08-10T20:43:46.676Z,26.56
2022-08-10T20:46:13.311Z,26.51
2022-08-10T20:48:40.003Z,26.46
2022-08-10T20:51:06.275Z,26.41
2022-08-10T20:53:32.691Z,26.34
2022-08-10T20:55:59.090Z,26.31
2022-08-10T20:58:25.534Z,26.25
2022-08-10T21:00:52.013Z,26.20
2022-08-10T21:03:20.767Z,26.13
2022-08-10T21:05:52.822Z,26.09
2022-08-10T21:08:24.457Z,26.04
2022-08-10T21:10:50.804Z,26.01
2022-08-10T21:13:17.623Z,25.98
2022-08-10T21:15:44.330Z,25.93
2022-08-10T21:18:12.211Z,25.89
2022-08-10T21:20:42.054Z,25.83
2022-08-10T21:23:14.000Z,25.79
2022-08-10T21:25:43.371Z,25.75
2022-08-10T21:28:10.138Z,25.71
2022-08-10T21:30:36.451Z,25.65
2022-08-10T21:33:02.700Z,25.61
2022-08-10T21:35:37.019Z,25.56
2022-08-10T21:38:03.715Z,25.54
2022-08-10T21:40:32.407Z,25.50
2022-08-10T21:43:02.198Z,25.46
2022-08-10T21:45:57.025Z,25.42
2022-08-10T21:48:18.006Z,25.38
2022-08-10T21:50:45.789Z,25.34
2022-08-10T21:53:12.672Z,25.31
2022-08-10T21:55:57.129Z,25.27
2022-08-10T21:58:27.450Z,25.22
2022-08-10T22:00:54.079Z,25.19
2022-08-10T22:03:20.403Z,25.15
2022-08-10T22:05:46.743Z,25.12
2022-08-10T22:08:14.966Z,25.09
2022-08-10T22:10:41.513Z,25.06
2022-08-10T22:13:11.244Z,25.02
2022-08-10T22:16:03.843Z,24.97
2022-08-10T22:18:31.096Z,24.93
2022-08-10T22:20:58.777Z,24.91
2022-08-10T22:23:25.057Z,24.83
2022-08-10T22:25:53.961Z,24.75
2022-08-10T22:28:20.343Z,24.56
2022-08-10T22:31:14.841Z,24.39
2022-08-10T22:33:33.382Z,24.21
2022-08-10T22:35:59.718Z,24.09
2022-08-10T22:38:26.049Z,23.99
2022-08-10T22:40:53.833Z,23.93
2022-08-10T22:43:35.445Z,23.84
2022-08-10T22:46:02.425Z,23.79
2022-08-10T22:48:28.783Z,23.75
2022-08-10T22:50:55.953Z,23.72
2022-08-10T22:53:22.302Z,23.63
2022-08-10T22:55:48.617Z,23.56
2022-08-10T22:58:16.103Z,23.46
2022-08-10T23:00:42.452Z,23.35
2022-08-10T23:03:08.815Z,23.26
2022-08-10T23:05:35.150Z,23.21
2022-08-10T23:08:01.425Z,23.14
2022-08-10T23:10:27.732Z,23.08
2022-08-10T23:12:54.073Z,23.03
2022-08-10T23:15:20.436Z,23.05
2022-08-10T23:18:01.164Z,23.06
2022-08-10T23:20:28.796Z,23.04
2022-08-10T23:22:55.053Z,23.00
2022-08-10T23:25:21.333Z,22.99
2022-08-10T23:27:51.109Z,22.89
2022-08-10T23:30:22.467Z,22.80
2022-08-10T23:32:51.130Z,22.72
2022-08-10T23:36:29.559Z,22.66
2022-08-10T23:38:03.649Z,22.62
2022-08-10T23:40:30.179Z,22.64
2022-08-10T23:42:56.525Z,22.60
2022-08-10T23:45:22.996Z,22.62
2022-08-10T23:47:49.311Z,22.59
2022-08-10T23:50:15.622Z,22.59
2022-08-10T23:52:41.992Z,22.57
2022-08-10T23:55:08.324Z,22.56
2022-08-10T23:57:34.743Z,22.55
